Time;durP1;ratioP1;P1;durP2;ratioP2;P2;SDS_P1;SDS_P2;PMS_P1;PMS_P2;Temp;Humidity;BMP_temperature;BMP_pressure;BME280_temperature;BME280_humidity;BME280_pressure;Samples;Min_cycle;Max_cycle;Signal;HPM_P1;HPM_P2
2021/01/17 00:00:24;;;;;;;40.83;17.33;;;-3.60;99.90;;;;;;4975686;28;20541;-60
2021/01/17 00:02:54;;;;;;;47.60;17.20;;;-3.60;99.90;;;;;;4985927;28;20902;-61
2021/01/17 00:05:24;;;;;;;41.47;18.37;;;-3.60;99.90;;;;;;4974943;28;20429;-60
2021/01/17 00:07:52;;;;;;;39.63;17.20;;;-3.60;99.90;;;;;;4983458;28;20820;-58
2021/01/17 00:10:28;;;;;;;40.60;16.85;;;-3.60;99.90;;;;;;4992509;28;20469;-59
2021/01/17 00:12:55;;;;;;;40.63;16.53;;;-3.50;99.90;;;;;;4983281;28;20188;-60
2021/01/17 00:15:22;;;;;;;37.27;16.57;;;-3.60;99.90;;;;;;4982199;28;20914;-60
2021/01/17 00:17:48;;;;;;;39.53;16.67;;;-3.50;99.90;;;;;;4991949;28;20848;-61
2021/01/17 00:20:16;;;;;;;42.90;19.20;;;-3.50;99.90;;;;;;5004587;28;20441;-61
2021/01/17 00:22:42;;;;;;;38.23;17.77;;;-3.50;99.90;;;;;;5016466;28;20187;-62
2021/01/17 00:25:13;;;;;;;45.33;17.77;;;-3.50;99.90;;;;;;5004651;28;20421;-61
2021/01/17 00:27:39;;;;;;;36.13;17.10;;;-3.50;99.90;;;;;;4978565;28;21037;-60
2021/01/17 00:30:08;;;;;;;37.40;16.03;;;-3.50;99.90;;;;;;4983408;28;20468;-60
2021/01/17 00:32:35;;;;;;;42.17;17.50;;;-3.50;99.90;;;;;;4981670;28;20832;-59
2021/01/17 00:35:01;;;;;;;45.17;17.33;;;-3.50;99.90;;;;;;4984083;28;20432;-57
2021/01/17 00:37:27;;;;;;;47.30;16.92;;;-3.50;99.90;;;;;;4979316;28;20489;-60
2021/01/17 00:39:53;;;;;;;47.53;19.10;;;-3.50;99.90;;;;;;4979831;28;20238;-60
2021/01/17 00:42:19;;;;;;;40.60;17.20;;;-3.40;99.90;;;;;;4981903;28;20537;-61
2021/01/17 00:44:45;;;;;;;46.37;18.70;;;-3.50;99.90;;;;;;4990051;28;20197;-60
2021/01/17 00:47:14;;;;;;;40.53;15.37;;;-3.50;99.90;;;;;;4983977;28;20233;-60
2021/01/17 00:49:43;;;;;;;41.43;17.50;;;-3.50;99.90;;;;;;4974362;28;20945;-60
2021/01/17 00:52:16;;;;;;;41.47;17.77;;;-3.50;99.90;;;;;;4987760;28;20950;-59
2021/01/17 00:54:41;;;;;;;39.27;17.70;;;-3.50;99.90;;;;;;4984672;28;20509;-60
2021/01/17 00:57:07;;;;;;;42.47;17.37;;;-3.50;99.90;;;;;;4990188;28;20559;-60
2021/01/17 00:59:33;;;;;;;42.47;17.97;;;-3.50;99.90;;;;;;4996383;28;20619;-60
2021/01/17 01:01:58;;;;;;;41.97;17.90;;;-3.50;99.90;;;;;;4984299;28;20887;-59
2021/01/17 01:04:24;;;;;;;44.47;17.83;;;-3.50;99.90;;;;;;4979753;28;20201;-60
2021/01/17 01:06:51;;;;;;;40.53;16.37;;;-3.50;99.90;;;;;;4980325;28;21202;-59
2021/01/17 01:09:18;;;;;;;42.43;18.57;;;-3.50;99.90;;;;;;4982290;28;20795;-60
2021/01/17 01:11:44;;;;;;;43.00;18.47;;;-3.50;99.90;;;;;;4983392;28;21210;-60
2021/01/17 01:14:10;;;;;;;44.90;18.50;;;-3.50;99.90;;;;;;4982175;28;20461;-59
2021/01/17 01:16:36;;;;;;;44.20;18.77;;;-3.50;99.90;;;;;;4990233;28;20990;-59
2021/01/17 01:19:02;;;;;;;45.33;18.43;;;-3.50;99.90;;;;;;4979660;28;20415;-60
2021/01/17 01:21:35;;;;;;;43.40;17.83;;;-3.50;99.90;;;;;;4985345;28;20247;-60
2021/01/17 01:24:01;;;;;;;49.37;20.87;;;-3.50;99.90;;;;;;4985985;28;20432;-60
2021/01/17 01:26:36;;;;;;;49.10;17.70;;;-3.50;99.90;;;;;;4988183;28;20435;-60
2021/01/17 01:29:02;;;;;;;46.00;18.83;;;-3.40;99.90;;;;;;4991269;28;20174;-60
2021/01/17 01:31:27;;;;;;;43.00;17.93;;;-3.40;99.90;;;;;;4989179;28;20450;-59
2021/01/17 01:33:53;;;;;;;44.33;18.40;;;-3.40;99.90;;;;;;4991812;28;21044;-59
2021/01/17 01:36:30;;;;;;;46.67;19.47;;;-3.40;99.90;;;;;;4989532;28;20237;-60
2021/01/17 01:38:57;;;;;;;47.60;20.27;;;-3.40;99.90;;;;;;4991695;28;20192;-59
2021/01/17 01:41:28;;;;;;;42.03;18.03;;;-3.30;99.90;;;;;;4991096;28;20914;-60
2021/01/17 01:43:54;;;;;;;45.17;18.50;;;-3.30;99.90;;;;;;4993865;28;20425;-59
2021/01/17 01:46:22;;;;;;;43.77;19.43;;;-3.30;99.90;;;;;;5036505;22;20490;-58
2021/01/17 01:48:49;;;;;;;41.13;17.73;;;-3.30;99.90;;;;;;5031628;28;20424;-61
2021/01/17 01:51:16;;;;;;;45.07;19.63;;;-3.20;99.90;;;;;;5027747;28;20456;-60
2021/01/17 01:53:43;;;;;;;46.87;20.17;;;-3.20;99.90;;;;;;5031595;28;20427;-60
2021/01/17 01:56:09;;;;;;;47.50;18.47;;;-3.10;99.90;;;;;;5028147;28;20443;-59
2021/01/17 01:58:37;;;;;;;43.23;18.40;;;-3.10;99.90;;;;;;5031099;28;20435;-59
2021/01/17 02:01:04;;;;;;;41.33;17.77;;;-3.10;99.90;;;;;;5026030;28;20933;-59
2021/01/17 02:03:30;;;;;;;44.23;19.00;;;-3.00;99.90;;;;;;5027055;28;20958;-59
2021/01/17 02:05:57;;;;;;;51.60;21.63;;;-3.00;99.90;;;;;;5028207;28;20459;-59
2021/01/17 02:08:37;;;;;;;46.97;19.67;;;-2.90;99.90;;;;;;5028398;28;20428;-59
2021/01/17 02:11:13;;;;;;;50.70;20.30;;;-2.90;99.90;;;;;;5025879;28;20449;-61
2021/01/17 02:13:40;;;;;;;45.87;19.43;;;-2.90;99.90;;;;;;5028001;28;20432;-60
2021/01/17 02:16:07;;;;;;;53.03;19.57;;;-2.90;99.90;;;;;;5029826;28;20433;-59
2021/01/17 02:18:41;;;;;;;50.10;21.67;;;-2.90;99.90;;;;;;5028702;28;21003;-59
2021/01/17 02:21:09;;;;;;;48.00;19.73;;;-2.80;99.90;;;;;;5030575;28;20443;-60
2021/01/17 02:23:51;;;;;;;46.47;21.90;;;-2.80;99.90;;;;;;5013512;28;20438;-60
2021/01/17 02:26:17;;;;;;;47.97;20.43;;;-2.80;99.90;;;;;;5021536;28;20811;-60
2021/01/17 02:28:44;;;;;;;45.90;18.57;;;-2.80;99.90;;;;;;5028197;28;20441;-58
2021/01/17 02:31:10;;;;;;;48.60;19.93;;;-2.80;99.90;;;;;;5026744;28;20692;-59
2021/01/17 02:33:39;;;;;;;47.57;19.70;;;-2.70;99.90;;;;;;5024431;28;20432;-59
2021/01/17 02:36:21;;;;;;;46.10;19.40;;;-2.70;99.90;;;;;;5027789;28;20444;-60
2021/01/17 02:39:01;;;;;;;42.53;18.93;;;-2.70;99.90;;;;;;5029876;28;20420;-60
2021/01/17 02:41:46;;;;;;;41.60;18.50;;;-2.70;99.90;;;;;;5016622;28;20424;-60
2021/01/17 02:44:12;;;;;;;44.57;19.03;;;-2.70;99.90;;;;;;5031895;28;20815;-59
2021/01/17 02:46:38;;;;;;;45.37;19.20;;;-2.70;99.90;;;;;;5023336;28;20472;-59
2021/01/17 02:49:04;;;;;;;36.47;17.27;;;-2.70;99.90;;;;;;5023741;28;20527;-60
2021/01/17 02:51:29;;;;;;;41.27;18.37;;;-2.70;99.90;;;;;;5018238;28;20187;-59
2021/01/17 02:54:09;;;;;;;39.93;18.00;;;-2.70;99.90;;;;;;5022010;28;20172;-60
2021/01/17 02:56:41;;;;;;;42.73;18.47;;;-2.70;99.90;;;;;;5029425;28;20444;-60
2021/01/17 02:59:11;;;;;;;43.93;17.50;;;-2.70;99.90;;;;;;5026828;28;20424;-60
2021/01/17 03:01:38;;;;;;;42.03;18.17;;;-2.70;99.90;;;;;;5025872;28;20427;-60
2021/01/17 03:04:20;;;;;;;46.30;18.40;;;-2.70;99.90;;;;;;5028678;28;20431;-60
2021/01/17 03:06:47;;;;;;;40.40;18.23;;;-2.70;99.90;;;;;;5031082;28;20432;-61
2021/01/17 03:09:13;;;;;;;45.53;17.87;;;-2.70;99.90;;;;;;5017010;28;20428;-60
2021/01/17 03:11:39;;;;;;;40.93;17.87;;;-2.70;99.90;;;;;;5024576;28;21139;-60
2021/01/17 03:14:06;;;;;;;44.77;18.30;;;-2.70;99.90;;;;;;5021895;28;20184;-60
2021/01/17 03:16:33;;;;;;;41.83;18.30;;;-2.70;99.90;;;;;;5026282;28;20600;-60
2021/01/17 03:18:59;;;;;;;41.23;17.77;;;-2.70;99.90;;;;;;5019806;28;20428;-59
2021/01/17 03:21:25;;;;;;;34.50;16.93;;;-2.70;99.90;;;;;;5027881;28;20463;-60
2021/01/17 03:23:50;;;;;;;41.13;17.20;;;-2.70;99.90;;;;;;5031017;28;20251;-60
2021/01/17 03:26:16;;;;;;;43.00;17.60;;;-2.70;99.90;;;;;;5025200;28;21001;-59
2021/01/17 03:28:42;;;;;;;39.90;17.60;;;-2.80;99.90;;;;;;5027008;28;20205;-61
2021/01/17 03:31:08;;;;;;;40.83;16.57;;;-2.70;99.90;;;;;;5030271;28;20209;-59
2021/01/17 03:33:33;;;;;;;43.90;18.07;;;-2.70;99.90;;;;;;5024354;28;20181;-59
2021/01/17 03:35:59;;;;;;;35.20;16.07;;;-2.70;99.90;;;;;;5028025;28;20542;-59
2021/01/17 03:38:24;;;;;;;37.60;16.83;;;-2.70;99.90;;;;;;5030574;28;20248;-59
2021/01/17 03:40:50;;;;;;;39.60;15.60;;;-2.70;99.90;;;;;;5022704;28;20254;-60
2021/01/17 03:43:16;;;;;;;36.53;15.43;;;-2.70;99.90;;;;;;5033112;28;20185;-59
2021/01/17 03:45:41;;;;;;;37.77;16.40;;;-2.70;99.90;;;;;;5031941;28;20216;-60
2021/01/17 03:48:07;;;;;;;40.70;17.63;;;-2.80;99.90;;;;;;5030291;28;20181;-61
2021/01/17 03:50:33;;;;;;;38.43;17.90;;;-2.80;99.90;;;;;;5024307;28;20203;-59
2021/01/17 03:52:58;;;;;;;39.23;17.37;;;-2.80;99.90;;;;;;5028269;28;20189;-59
2021/01/17 03:55:24;;;;;;;38.43;18.17;;;-2.70;99.90;;;;;;5033880;28;20231;-60
2021/01/17 03:57:50;;;;;;;35.60;15.70;;;-2.70;99.90;;;;;;5034806;28;20186;-60
2021/01/17 04:00:16;;;;;;;38.07;16.70;;;-2.70;99.90;;;;;;5028874;28;20859;-59
2021/01/17 04:02:42;;;;;;;36.30;16.63;;;-2.70;99.90;;;;;;5033204;28;20456;-59
2021/01/17 04:05:08;;;;;;;38.20;16.67;;;-2.70;99.90;;;;;;5029624;28;20438;-59
2021/01/17 04:07:34;;;;;;;37.07;17.27;;;-2.60;99.90;;;;;;5029314;28;20202;-60
2021/01/17 04:10:00;;;;;;;40.47;17.30;;;-2.60;99.90;;;;;;5032761;28;20501;-59
2021/01/17 04:12:27;;;;;;;41.90;17.93;;;-2.60;99.90;;;;;;5033611;28;20860;-60
2021/01/17 04:14:52;;;;;;;37.93;16.13;;;-2.60;99.90;;;;;;5033788;28;20182;-60
2021/01/17 04:17:18;;;;;;;40.47;17.47;;;-2.60;99.90;;;;;;5030226;28;20449;-59
2021/01/17 04:19:43;;;;;;;38.90;16.60;;;-2.60;99.90;;;;;;5029640;28;20185;-60
2021/01/17 04:22:09;;;;;;;37.60;16.83;;;-2.60;99.90;;;;;;5032868;28;20308;-60
2021/01/17 04:24:35;;;;;;;38.57;16.87;;;-2.60;99.90;;;;;;5027046;28;20332;-59
2021/01/17 04:27:02;;;;;;;44.10;19.43;;;-2.60;99.90;;;;;;5025237;28;20683;-60
2021/01/17 04:29:28;;;;;;;41.07;17.67;;;-2.60;99.90;;;;;;5014193;28;20212;-60
2021/01/17 04:31:55;;;;;;;45.90;18.80;;;-2.60;99.90;;;;;;5027428;28;20460;-60
2021/01/17 04:34:22;;;;;;;38.33;18.53;;;-2.60;99.90;;;;;;5032067;28;20427;-59
2021/01/17 04:36:49;;;;;;;45.73;19.67;;;-2.60;99.90;;;;;;5033668;28;20440;-59
2021/01/17 04:39:15;;;;;;;38.40;18.13;;;-2.60;99.90;;;;;;5045626;28;20862;-58
2021/01/17 04:41:43;;;;;;;41.20;17.70;;;-2.60;99.90;;;;;;5032175;28;20436;-60
2021/01/17 04:44:10;;;;;;;40.23;16.77;;;-2.60;99.90;;;;;;5030316;28;20428;-60
2021/01/17 04:46:37;;;;;;;42.00;17.93;;;-2.60;99.90;;;;;;5028672;28;20487;-60
2021/01/17 04:49:07;;;;;;;38.07;17.10;;;-2.60;99.90;;;;;;5030899;28;20798;-59
2021/01/17 04:51:33;;;;;;;35.50;16.27;;;-2.60;99.90;;;;;;5029982;28;20810;-59
2021/01/17 04:54:00;;;;;;;40.00;17.47;;;-2.60;99.90;;;;;;5030927;28;20412;-60
2021/01/17 04:56:27;;;;;;;37.33;18.43;;;-2.60;99.90;;;;;;5033242;28;20442;-60
2021/01/17 04:59:08;;;;;;;39.87;18.70;;;-2.60;99.90;;;;;;5019504;28;20436;-59
2021/01/17 05:01:48;;;;;;;37.67;16.10;;;-2.60;99.90;;;;;;5018962;28;20422;-59
2021/01/17 05:04:34;;;;;;;39.90;17.43;;;-2.60;99.90;;;;;;5024511;28;20445;-60
2021/01/17 05:07:09;;;;;;;37.87;17.03;;;-2.60;99.90;;;;;;5016171;28;20443;-60
2021/01/17 05:09:45;;;;;;;43.67;19.27;;;-2.50;99.90;;;;;;5011764;28;20496;-60
2021/01/17 05:12:14;;;;;;;43.20;17.13;;;-2.60;99.90;;;;;;5029423;28;20427;-60
2021/01/17 05:14:54;;;;;;;44.43;17.80;;;-2.50;99.90;;;;;;5031518;28;20779;-60
2021/01/17 05:17:24;;;;;;;46.67;19.80;;;-2.50;99.90;;;;;;5027003;28;20467;-59
2021/01/17 05:19:50;;;;;;;35.47;16.33;;;-2.50;99.90;;;;;;5030575;28;20436;-59
2021/01/17 05:22:18;;;;;;;41.97;19.40;;;-2.50;99.90;;;;;;5028807;28;20457;-59
2021/01/17 05:24:45;;;;;;;40.03;17.10;;;-2.60;99.90;;;;;;5031635;28;20173;-59
2021/01/17 05:27:11;;;;;;;42.63;18.13;;;-2.50;99.90;;;;;;5030367;28;20486;-60
2021/01/17 05:29:36;;;;;;;41.13;18.73;;;-2.50;99.90;;;;;;5029621;28;20798;-59
2021/01/17 05:32:05;;;;;;;47.03;18.50;;;-2.50;99.90;;;;;;5030659;28;20444;-60
2021/01/17 05:34:32;;;;;;;38.50;17.20;;;-2.50;99.90;;;;;;5027866;28;20237;-61
2021/01/17 05:37:05;;;;;;;40.73;18.93;;;-2.50;99.90;;;;;;5030885;28;20444;-60
2021/01/17 05:39:48;;;;;;;45.20;18.30;;;-2.50;99.90;;;;;;5031050;28;20502;-60
2021/01/17 05:42:14;;;;;;;44.53;18.50;;;-2.50;99.90;;;;;;5019792;28;20503;-61
2021/01/17 05:44:42;;;;;;;48.57;19.33;;;-2.50;99.90;;;;;;5030158;28;20420;-60
2021/01/17 05:47:08;;;;;;;46.63;19.53;;;-2.50;99.90;;;;;;5020493;28;20214;-60
2021/01/17 05:49:34;;;;;;;39.77;17.73;;;-2.50;99.90;;;;;;5020867;28;20465;-60
2021/01/17 05:52:11;;;;;;;42.13;18.00;;;-2.50;99.90;;;;;;5039313;28;20196;-60
2021/01/17 05:54:38;;;;;;;48.03;20.70;;;-2.50;99.90;;;;;;5030022;28;20419;-59
2021/01/17 05:57:14;;;;;;;43.57;19.47;;;-2.50;99.90;;;;;;5030571;28;20898;-60
2021/01/17 05:59:40;;;;;;;40.50;18.27;;;-2.50;99.90;;;;;;5041433;28;20431;-60
2021/01/17 06:02:17;;;;;;;41.70;19.50;;;-2.50;99.90;;;;;;5024901;28;21037;-59
2021/01/17 06:04:55;;;;;;;48.37;20.87;;;-2.50;99.90;;;;;;5028242;28;20469;-60
2021/01/17 06:07:25;;;;;;;39.53;16.73;;;-2.50;99.90;;;;;;5024590;28;20466;-59
2021/01/17 06:10:05;;;;;;;35.60;15.10;;;-2.50;99.90;;;;;;5012491;28;21016;-60
2021/01/17 06:12:36;;;;;;;40.13;18.50;;;-2.50;99.90;;;;;;5016758;28;20859;-61
2021/01/17 06:15:07;;;;;;;43.60;18.47;;;-2.40;99.90;;;;;;5029630;28;20455;-60
2021/01/17 06:17:35;;;;;;;38.57;16.80;;;-2.40;99.90;;;;;;5019405;28;20447;-62
2021/01/17 06:20:03;;;;;;;41.43;17.60;;;-2.40;99.90;;;;;;5027872;28;20456;-59
2021/01/17 06:22:30;;;;;;;38.03;17.03;;;-2.40;99.90;;;;;;5031227;28;20459;-60
2021/01/17 06:25:05;;;;;;;43.10;19.27;;;-2.30;99.90;;;;;;5024329;28;20440;-60
2021/01/17 06:27:31;;;;;;;41.90;19.40;;;-2.30;99.90;;;;;;5026404;28;20447;-59
2021/01/17 06:29:57;;;;;;;44.60;19.03;;;-2.30;99.90;;;;;;5029934;28;20470;-60
2021/01/17 06:32:25;;;;;;;37.23;17.57;;;-2.30;99.90;;;;;;5024594;28;20433;-60
2021/01/17 06:34:53;;;;;;;39.27;17.43;;;-2.20;99.90;;;;;;5028274;28;20940;-59
2021/01/17 06:37:22;;;;;;;36.90;17.40;;;-2.20;99.90;;;;;;5011302;28;20500;-60
2021/01/17 06:39:58;;;;;;;41.73;17.87;;;-2.20;99.90;;;;;;5026749;28;20439;-60
2021/01/17 06:42:27;;;;;;;43.30;17.10;;;-2.20;99.90;;;;;;5024845;28;20497;-60
2021/01/17 06:44:53;;;;;;;35.73;15.40;;;-2.20;99.90;;;;;;5028125;28;20535;-59
2021/01/17 06:47:26;;;;;;;38.73;16.90;;;-2.20;99.90;;;;;;5029194;28;20459;-60
2021/01/17 06:49:55;;;;;;;39.23;16.90;;;-2.20;99.90;;;;;;5025874;28;20452;-60
2021/01/17 06:52:22;;;;;;;47.70;17.97;;;-2.20;99.90;;;;;;5017652;28;20419;-59
2021/01/17 06:54:49;;;;;;;43.80;17.80;;;-2.20;99.90;;;;;;5020867;28;20489;-59
2021/01/17 06:57:19;;;;;;;36.10;16.17;;;-2.20;99.90;;;;;;5013054;28;20463;-60
2021/01/17 06:59:46;;;;;;;36.60;15.97;;;-2.20;99.90;;;;;;5030625;28;20419;-59
2021/01/17 07:02:15;;;;;;;38.50;16.20;;;-2.20;99.90;;;;;;5030382;28;20918;-59
2021/01/17 07:04:53;;;;;;;38.20;17.13;;;-2.10;99.90;;;;;;5027557;28;20427;-60
2021/01/17 07:07:24;;;;;;;33.53;16.53;;;-2.10;99.90;;;;;;5017964;28;20448;-60
2021/01/17 07:10:01;;;;;;;39.10;17.73;;;-2.10;99.90;;;;;;5014765;28;20456;-59
2021/01/17 07:12:57;;;;;;;42.93;17.40;;;-2.20;99.90;;;;;;5013838;28;20415;-60
2021/01/17 07:15:33;;;;;;;46.57;19.97;;;-2.20;99.90;;;;;;5012753;28;20428;-60
2021/01/17 07:18:07;;;;;;;38.90;18.40;;;-2.20;99.90;;;;;;5023253;28;20932;-60
2021/01/17 07:20:37;;;;;;;44.70;19.07;;;-2.20;99.90;;;;;;5018436;28;20436;-59
2021/01/17 07:23:05;;;;;;;37.70;17.13;;;-2.20;99.90;;;;;;5016397;28;20448;-60
2021/01/17 07:25:34;;;;;;;44.03;18.97;;;-2.20;99.90;;;;;;5016693;28;21004;-59
2021/01/17 07:28:09;;;;;;;38.70;17.57;;;-2.20;99.90;;;;;;5025598;28;20532;-60
2021/01/17 07:30:54;;;;;;;43.73;18.17;;;-2.20;99.90;;;;;;5021491;28;20497;-60
2021/01/17 07:33:25;;;;;;;47.90;20.67;;;-2.20;99.90;;;;;;5024847;28;20445;-60
2021/01/17 07:35:52;;;;;;;37.80;17.13;;;-2.20;99.90;;;;;;5021941;28;20911;-61
2021/01/17 07:38:25;;;;;;;45.63;18.90;;;-2.20;99.90;;;;;;5022395;28;20415;-59
2021/01/17 07:40:54;;;;;;;41.27;18.50;;;-2.20;99.90;;;;;;5025594;28;20440;-60
2021/01/17 07:43:27;;;;;;;50.20;19.27;;;-2.20;99.90;;;;;;5029709;28;20525;-60
2021/01/17 07:45:54;;;;;;;55.93;23.63;;;-2.20;99.90;;;;;;5022277;28;20908;-60
2021/01/17 07:48:20;;;;;;;49.67;21.97;;;-2.10;99.90;;;;;;5027562;28;20432;-60
2021/01/17 07:50:49;;;;;;;45.00;19.63;;;-2.10;99.90;;;;;;5023473;28;20459;-60
2021/01/17 07:53:36;;;;;;;40.13;18.53;;;-2.00;99.90;;;;;;5027245;28;20442;-61
2021/01/17 07:56:07;;;;;;;47.07;19.50;;;-2.00;99.90;;;;;;5015793;28;20492;-59
2021/01/17 07:58:36;;;;;;;65.80;28.63;;;-1.90;99.90;;;;;;5012274;28;20967;-61
2021/01/17 08:01:02;;;;;;;53.13;21.23;;;-1.90;99.90;;;;;;5005778;28;20437;-59
2021/01/17 08:03:28;;;;;;;49.73;22.83;;;-1.90;99.90;;;;;;5020931;28;20443;-60
2021/01/17 08:05:57;;;;;;;42.70;20.63;;;-1.80;99.90;;;;;;5022594;28;20213;-59
2021/01/17 08:08:35;;;;;;;42.87;21.33;;;-1.80;99.90;;;;;;5022857;28;20188;-59
2021/01/17 08:11:04;;;;;;;44.53;19.93;;;-1.80;99.90;;;;;;5021300;28;20478;-60
2021/01/17 08:13:36;;;;;;;46.10;21.80;;;-1.80;99.90;;;;;;5016018;28;20936;-59
2021/01/17 08:16:14;;;;;;;44.70;20.30;;;-1.80;99.90;;;;;;5019699;28;20503;-58
2021/01/17 08:18:45;;;;;;;38.90;19.10;;;-1.80;99.90;;;;;;5016041;28;20440;-59
2021/01/17 08:21:19;;;;;;;45.00;19.17;;;-1.70;99.90;;;;;;5020327;28;20527;-59
2021/01/17 08:24:13;;;;;;;33.60;15.93;;;-1.80;99.90;;;;;;5023595;28;20963;-60
2021/01/17 08:27:08;;;;;;;41.77;17.20;;;-1.70;99.90;;;;;;5021971;28;20474;-60
2021/01/17 08:30:08;;;;;;;37.50;17.50;;;-1.70;99.90;;;;;;5008572;28;20482;-61
2021/01/17 08:32:54;;;;;;;42.73;18.90;;;-1.80;99.90;;;;;;5023935;28;20424;-59
2021/01/17 08:35:19;;;;;;;41.50;18.70;;;-1.70;99.90;;;;;;5021084;28;20525;-59
2021/01/17 08:38:08;;;;;;;48.37;19.93;;;-1.70;99.90;;;;;;5018564;28;20503;-60
2021/01/17 08:40:34;;;;;;;38.70;17.70;;;-1.70;99.90;;;;;;4995046;28;20201;-59
2021/01/17 08:43:00;;;;;;;39.73;19.20;;;-1.60;99.90;;;;;;4994960;28;20484;-60
2021/01/17 08:45:26;;;;;;;41.27;19.57;;;-1.60;99.90;;;;;;5000078;28;20188;-59
2021/01/17 08:47:53;;;;;;;37.27;18.33;;;-1.50;99.90;;;;;;5000018;28;20437;-57
2021/01/17 08:50:36;;;;;;;42.23;20.00;;;-1.50;99.90;;;;;;4992414;28;20210;-60
2021/01/17 08:53:14;;;;;;;47.60;19.50;;;-1.40;99.90;;;;;;5001031;28;20540;-60
2021/01/17 08:55:41;;;;;;;39.73;18.13;;;-1.40;99.90;;;;;;4997193;28;20966;-60
2021/01/17 08:58:08;;;;;;;35.97;18.63;;;-1.40;99.90;;;;;;5001177;28;20545;-60
2021/01/17 09:00:52;;;;;;;43.57;19.23;;;-1.30;99.90;;;;;;4996900;28;20483;-59
2021/01/17 09:03:25;;;;;;;39.10;18.70;;;-1.30;99.90;;;;;;4998075;28;20530;-60
2021/01/17 09:05:56;;;;;;;44.80;19.93;;;-1.30;99.90;;;;;;4997157;28;20466;-62
2021/01/17 09:08:22;;;;;;;42.50;18.80;;;-1.20;99.90;;;;;;4999632;28;20433;-60
2021/01/17 09:10:48;;;;;;;32.60;14.87;;;-1.20;99.90;;;;;;4995998;28;20980;-62
2021/01/17 09:13:21;;;;;;;37.53;19.17;;;-1.10;99.90;;;;;;4996670;28;20694;-60
2021/01/17 09:16:07;;;;;;;51.90;21.07;;;-1.00;99.90;;;;;;4999264;28;20476;-61
2021/01/17 09:18:39;;;;;;;51.27;21.40;;;-1.00;99.90;;;;;;5003568;28;20982;-61
2021/01/17 09:21:06;;;;;;;36.13;17.60;;;-0.90;99.90;;;;;;5002340;28;20961;-60
2021/01/17 09:23:39;;;;;;;39.47;17.53;;;-0.90;99.90;;;;;;5004653;28;20937;-60
2021/01/17 09:26:07;;;;;;;25.00;11.57;;;-0.80;99.90;;;;;;5010733;28;20556;-62
2021/01/17 09:28:33;;;;;;;22.03;11.10;;;-0.80;99.90;;;;;;5004865;28;20439;-60
2021/01/17 09:31:02;;;;;;;25.00;12.27;;;-0.70;99.90;;;;;;5002539;28;20471;-61
2021/01/17 09:33:29;;;;;;;21.60;11.63;;;-0.70;99.90;;;;;;5002381;28;20936;-61
2021/01/17 09:35:55;;;;;;;20.77;10.70;;;-0.70;99.90;;;;;;5009154;28;20449;-61
2021/01/17 09:38:26;;;;;;;21.77;10.97;;;-0.60;99.90;;;;;;5000987;28;20498;-60
2021/01/17 09:40:56;;;;;;;19.23;10.13;;;-0.60;99.90;;;;;;4995446;28;20483;-60
2021/01/17 09:43:22;;;;;;;16.07;9.50;;;-0.60;99.90;;;;;;4997474;28;20189;-59
2021/01/17 09:45:53;;;;;;;22.10;10.60;;;-0.50;99.90;;;;;;4994037;28;20467;-59
2021/01/17 09:48:20;;;;;;;18.53;10.20;;;-0.50;99.90;;;;;;5002623;28;20662;-59
2021/01/17 09:50:46;;;;;;;18.07;9.13;;;-0.50;99.90;;;;;;4998092;28;20604;-59
2021/01/17 09:53:13;;;;;;;17.17;9.40;;;-0.50;99.90;;;;;;5002315;28;20436;-59
2021/01/17 09:55:40;;;;;;;17.37;9.47;;;-0.50;99.90;;;;;;4995062;28;20458;-59
2021/01/17 09:58:08;;;;;;;16.40;8.17;;;-0.40;99.90;;;;;;4991566;28;20927;-58
2021/01/17 10:00:34;;;;;;;17.80;9.37;;;-0.40;99.90;;;;;;4994251;28;20986;-58
2021/01/17 10:03:07;;;;;;;17.87;9.43;;;-0.40;99.90;;;;;;4990969;28;20469;-59
2021/01/17 10:05:37;;;;;;;16.20;8.30;;;-0.30;99.90;;;;;;4994737;28;20477;-60
2021/01/17 10:08:05;;;;;;;23.17;11.30;;;-0.20;99.90;;;;;;4992050;28;20451;-58
2021/01/17 10:10:33;;;;;;;31.37;14.50;;;-0.20;99.90;;;;;;4993693;28;20927;-59
2021/01/17 10:12:59;;;;;;;31.63;15.77;;;-0.10;99.90;;;;;;5001387;28;20523;-58
2021/01/17 10:15:25;;;;;;;34.00;16.43;;;-0.10;99.90;;;;;;5002327;28;20554;-60
2021/01/17 10:17:52;;;;;;;33.10;16.77;;;-0.10;99.90;;;;;;4997963;28;20178;-60
2021/01/17 10:20:26;;;;;;;33.93;16.73;;;0.00;99.90;;;;;;4998949;28;20523;-58
2021/01/17 10:22:59;;;;;;;25.37;12.30;;;0.00;99.90;;;;;;4999777;28;20515;-58
2021/01/17 10:25:26;;;;;;;25.50;11.67;;;0.10;99.90;;;;;;4998394;28;21207;-59
2021/01/17 10:28:24;;;;;;;15.50;8.70;;;0.30;99.90;;;;;;4999068;28;20441;-56
2021/01/17 10:30:55;;;;;;;17.37;8.23;;;0.50;99.90;;;;;;4979073;28;20559;-61
2021/01/17 10:33:22;;;;;;;13.93;8.60;;;0.70;99.90;;;;;;4989519;28;20554;-60
2021/01/17 10:35:51;;;;;;;20.57;9.10;;;0.80;99.90;;;;;;4994466;28;20475;-58
2021/01/17 10:38:18;;;;;;;15.70;8.33;;;1.10;99.90;;;;;;4997149;28;20445;-60
2021/01/17 10:40:45;;;;;;;10.77;5.50;;;1.40;99.90;;;;;;4992692;28;20447;-59
2021/01/17 10:43:35;;;;;;;17.00;8.60;;;1.60;99.90;;;;;;4996887;28;20443;-59
2021/01/17 10:46:07;;;;;;;19.70;9.83;;;1.80;99.90;;;;;;4995663;28;20534;-60
2021/01/17 10:48:43;;;;;;;18.00;9.70;;;1.90;99.90;;;;;;4995640;28;20855;-61
2021/01/17 10:51:12;;;;;;;17.60;9.60;;;1.90;99.90;;;;;;4991687;28;20468;-61
2021/01/17 10:53:38;;;;;;;13.77;8.27;;;1.90;99.90;;;;;;4993841;28;20425;-61
2021/01/17 10:56:04;;;;;;;11.13;6.87;;;1.90;99.90;;;;;;4997938;28;21069;-64
2021/01/17 10:58:39;;;;;;;11.77;5.63;;;2.10;99.90;;;;;;4999608;28;20208;-61
2021/01/17 11:01:04;;;;;;;16.47;8.03;;;2.20;99.40;;;;;;4994730;28;20470;-62
2021/01/17 11:03:34;;;;;;;13.10;8.20;;;2.10;99.40;;;;;;4999803;28;20559;-61
2021/01/17 11:06:12;;;;;;;11.77;5.97;;;2.10;99.70;;;;;;4998012;28;20211;-63
2021/01/17 11:08:50;;;;;;;11.83;4.53;;;2.00;99.90;;;;;;5004118;28;20548;-61
2021/01/17 11:11:17;;;;;;;4.63;3.10;;;2.00;99.70;;;;;;5000600;28;21078;-64
2021/01/17 11:13:43;;;;;;;3.60;3.17;;;1.90;99.60;;;;;;5011485;28;20449;-61
2021/01/17 11:16:09;;;;;;;4.93;3.47;;;1.90;99.90;;;;;;5014232;28;20465;-62
2021/01/17 11:18:38;;;;;;;4.20;2.90;;;1.90;99.90;;;;;;5008258;28;20460;-60
2021/01/17 11:21:05;;;;;;;5.13;3.00;;;1.80;99.80;;;;;;4999405;28;20516;-59
2021/01/17 11:23:31;;;;;;;11.20;4.77;;;1.80;99.90;;;;;;4995491;28;20448;-59
2021/01/17 11:26:06;;;;;;;5.70;3.90;;;1.80;99.90;;;;;;4991980;28;20886;-58
2021/01/17 11:28:33;;;;;;;5.77;3.33;;;1.70;99.90;;;;;;4998316;28;20449;-61
2021/01/17 11:31:16;;;;;;;5.13;3.93;;;1.70;99.90;;;;;;4997536;28;20565;-59
2021/01/17 11:33:42;;;;;;;7.47;4.10;;;1.70;99.90;;;;;;4996326;28;20428;-59
2021/01/17 11:36:09;;;;;;;5.90;3.70;;;1.70;99.90;;;;;;4996269;28;20444;-59
2021/01/17 11:38:54;;;;;;;6.97;3.37;;;1.70;99.90;;;;;;5008803;28;20427;-59
2021/01/17 11:41:22;;;;;;;6.80;4.30;;;1.80;99.90;;;;;;5008822;28;20472;-61
2021/01/17 11:43:49;;;;;;;5.60;4.27;;;1.80;99.90;;;;;;5010448;28;20439;-60
2021/01/17 11:46:15;;;;;;;10.67;5.60;;;1.90;99.90;;;;;;5003863;28;20480;-59
2021/01/17 11:48:43;;;;;;;3.80;3.10;;;1.90;99.90;;;;;;4999211;28;20821;-60
2021/01/17 11:51:10;;;;;;;15.90;8.50;;;1.90;99.90;;;;;;5001065;28;20480;-61
2021/01/17 11:53:37;;;;;;;7.67;4.00;;;2.00;99.90;;;;;;5005382;28;20430;-60
2021/01/17 11:56:04;;;;;;;11.80;6.17;;;2.10;99.90;;;;;;5002695;28;20461;-59
2021/01/17 11:58:40;;;;;;;5.40;3.30;;;2.10;99.90;;;;;;4988279;28;20434;-60
2021/01/17 12:01:07;;;;;;;6.50;3.83;;;2.10;99.90;;;;;;5000911;28;20445;-59
2021/01/17 12:03:38;;;;;;;5.50;3.87;;;2.10;99.60;;;;;;4994393;28;20865;-60
2021/01/17 12:06:10;;;;;;;8.30;3.80;;;2.00;99.90;;;;;;5003983;28;20808;-59
2021/01/17 12:09:08;;;;;;;11.93;5.77;;;2.10;99.90;;;;;;5004732;28;20436;-59
2021/01/17 12:11:48;;;;;;;5.33;4.07;;;2.00;99.80;;;;;;5001758;28;20620;-59
2021/01/17 12:14:21;;;;;;;9.97;3.60;;;2.00;99.80;;;;;;5005907;28;20432;-59
2021/01/17 12:16:51;;;;;;;3.07;2.73;;;1.90;99.90;;;;;;5004618;28;20951;-59
2021/01/17 12:19:17;;;;;;;4.20;2.77;;;1.90;99.90;;;;;;4999485;28;21161;-60
2021/01/17 12:21:44;;;;;;;2.50;2.20;;;1.90;99.90;;;;;;5002617;28;20418;-60
2021/01/17 12:24:12;;;;;;;5.47;3.43;;;2.00;99.90;;;;;;5000063;28;20460;-62
2021/01/17 12:26:39;;;;;;;6.40;2.87;;;2.00;99.90;;;;;;4997220;28;20461;-60
2021/01/17 12:29:06;;;;;;;3.00;2.27;;;2.00;99.90;;;;;;5003547;28;20426;-61
2021/01/17 12:31:32;;;;;;;3.60;2.00;;;2.10;99.90;;;;;;5004924;28;20488;-59
2021/01/17 12:33:58;;;;;;;2.90;2.23;;;2.10;99.70;;;;;;5002091;28;20445;-59
2021/01/17 12:36:26;;;;;;;4.80;2.10;;;2.10;99.90;;;;;;5005576;28;20465;-60
2021/01/17 12:38:53;;;;;;;4.67;2.50;;;2.10;99.90;;;;;;5005309;28;20437;-60
2021/01/17 12:41:22;;;;;;;3.80;2.43;;;2.20;99.90;;;;;;4995500;28;20437;-60
2021/01/17 12:43:49;;;;;;;3.43;2.27;;;2.20;99.90;;;;;;5001541;28;20530;-58
2021/01/17 12:46:16;;;;;;;3.57;2.30;;;2.30;99.90;;;;;;4994808;28;20498;-59